sensor_id;sensor_type;location;lat;lon;timestamp;P1;durP1;ratioP1;P2;durP2;ratioP2
36585;SDS011;22591;48.314;11.562;2023-12-28T00:00:34;8.70;;;7.80;;
36585;SDS011;22591;48.314;11.562;2023-12-28T00:02:59;8.45;;;7.63;;
36585;SDS011;22591;48.314;11.562;2023-12-28T00:05:25;9.10;;;6.85;;
36585;SDS011;22591;48.314;11.562;2023-12-28T00:07:50;10.40;;;6.88;;
36585;SDS011;22591;48.314;11.562;2023-12-28T00:10:25;7.13;;;6.53;;
36585;SDS011;22591;48.314;11.562;2023-12-28T00:12:52;6.07;;;5.57;;
36585;SDS011;22591;48.314;11.562;2023-12-28T00:15:18;8.80;;;6.35;;
36585;SDS011;22591;48.314;11.562;2023-12-28T00:17:43;7.68;;;6.15;;
36585;SDS011;22591;48.314;11.562;2023-12-28T00:20:09;6.38;;;5.88;;
36585;SDS011;22591;48.314;11.562;2023-12-28T00:22:35;6.07;;;5.57;;
36585;SDS011;22591;48.314;11.562;2023-12-28T00:25:02;8.73;;;5.97;;
36585;SDS011;22591;48.314;11.562;2023-12-28T00:27:28;5.57;;;5.13;;
36585;SDS011;22591;48.314;11.562;2023-12-28T00:29:54;5.80;;;5.20;;
36585;SDS011;22591;48.314;11.562;2023-12-28T00:32:19;5.95;;;5.40;;
36585;SDS011;22591;48.314;11.562;2023-12-28T00:34:45;5.50;;;5.10;;
36585;SDS011;22591;48.314;11.562;2023-12-28T00:37:10;6.85;;;5.43;;
36585;SDS011;22591;48.314;11.562;2023-12-28T00:39:36;5.32;;;4.78;;
36585;SDS011;22591;48.314;11.562;2023-12-28T00:42:01;6.88;;;4.30;;
36585;SDS011;22591;48.314;11.562;2023-12-28T00:44:28;7.65;;;4.13;;
36585;SDS011;22591;48.314;11.562;2023-12-28T00:46:54;4.75;;;4.35;;
36585;SDS011;22591;48.314;11.562;2023-12-28T00:49:19;4.65;;;4.35;;
36585;SDS011;22591;48.314;11.562;2023-12-28T00:51:45;4.97;;;4.57;;
36585;SDS011;22591;48.314;11.562;2023-12-28T00:54:11;4.57;;;4.28;;
36585;SDS011;22591;48.314;11.562;2023-12-28T00:56:37;4.53;;;4.10;;
36585;SDS011;22591;48.314;11.562;2023-12-28T00:59:02;4.72;;;4.25;;
36585;SDS011;22591;48.314;11.562;2023-12-28T01:01:28;4.47;;;4.10;;
36585;SDS011;22591;48.314;11.562;2023-12-28T01:03:55;5.80;;;4.18;;
36585;SDS011;22591;48.314;11.562;2023-12-28T01:06:21;4.55;;;4.22;;
36585;SDS011;22591;48.314;11.562;2023-12-28T01:08:47;4.22;;;3.92;;
36585;SDS011;22591;48.314;11.562;2023-12-28T01:11:12;4.20;;;3.80;;
36585;SDS011;22591;48.314;11.562;2023-12-28T01:13:38;4.45;;;4.05;;
36585;SDS011;22591;48.314;11.562;2023-12-28T01:16:03;3.70;;;3.50;;
36585;SDS011;22591;48.314;11.562;2023-12-28T01:18:29;4.20;;;3.90;;
36585;SDS011;22591;48.314;11.562;2023-12-28T01:20:55;4.15;;;3.85;;
36585;SDS011;22591;48.314;11.562;2023-12-28T01:23:20;4.20;;;3.90;;
36585;SDS011;22591;48.314;11.562;2023-12-28T01:25:46;3.88;;;3.58;;
36585;SDS011;22591;48.314;11.562;2023-12-28T01:28:11;4.30;;;4.00;;
36585;SDS011;22591;48.314;11.562;2023-12-28T01:30:37;3.80;;;3.50;;
36585;SDS011;22591;48.314;11.562;2023-12-28T01:33:03;3.25;;;2.95;;
36585;SDS011;22591;48.314;11.562;2023-12-28T01:35:29;3.40;;;3.03;;
36585;SDS011;22591;48.314;11.562;2023-12-28T01:37:54;2.25;;;2.13;;
36585;SDS011;22591;48.314;11.562;2023-12-28T01:40:20;2.72;;;2.47;;
36585;SDS011;22591;48.314;11.562;2023-12-28T01:42:46;3.22;;;3.03;;
36585;SDS011;22591;48.314;11.562;2023-12-28T01:45:11;2.92;;;2.28;;
36585;SDS011;22591;48.314;11.562;2023-12-28T01:47:37;2.38;;;2.17;;
36585;SDS011;22591;48.314;11.562;2023-12-28T01:50:03;2.85;;;2.65;;
36585;SDS011;22591;48.314;11.562;2023-12-28T01:52:30;2.92;;;2.72;;
36585;SDS011;22591;48.314;11.562;2023-12-28T01:54:56;2.20;;;2.00;;
36585;SDS011;22591;48.314;11.562;2023-12-28T01:57:22;2.50;;;2.33;;
36585;SDS011;22591;48.314;11.562;2023-12-28T01:59:48;2.80;;;2.60;;
36585;SDS011;22591;48.314;11.562;2023-12-28T02:02:13;2.80;;;2.60;;
36585;SDS011;22591;48.314;11.562;2023-12-28T02:04:39;2.75;;;2.58;;
36585;SDS011;22591;48.314;11.562;2023-12-28T02:07:05;2.42;;;2.28;;
36585;SDS011;22591;48.314;11.562;2023-12-28T02:09:31;2.50;;;2.35;;
36585;SDS011;22591;48.314;11.562;2023-12-28T02:11:57;2.83;;;2.63;;
36585;SDS011;22591;48.314;11.562;2023-12-28T02:14:22;2.50;;;2.30;;
36585;SDS011;22591;48.314;11.562;2023-12-28T02:16:56;2.90;;;2.70;;
36585;SDS011;22591;48.314;11.562;2023-12-28T02:22:14;2.65;;;2.45;;
36585;SDS011;22591;48.314;11.562;2023-12-28T02:27:23;2.80;;;2.63;;
36585;SDS011;22591;48.314;11.562;2023-12-28T02:29:48;2.60;;;2.42;;
36585;SDS011;22591;48.314;11.562;2023-12-28T02:32:14;2.72;;;2.55;;
36585;SDS011;22591;48.314;11.562;2023-12-28T02:34:42;3.03;;;2.83;;
36585;SDS011;22591;48.314;11.562;2023-12-28T02:37:10;3.55;;;3.33;;
36585;SDS011;22591;48.314;11.562;2023-12-28T02:39:41;3.10;;;2.85;;
36585;SDS011;22591;48.314;11.562;2023-12-28T02:42:11;3.60;;;3.30;;
36585;SDS011;22591;48.314;11.562;2023-12-28T02:44:37;3.72;;;3.42;;
36585;SDS011;22591;48.314;11.562;2023-12-28T02:47:03;2.67;;;2.47;;
36585;SDS011;22591;48.314;11.562;2023-12-28T02:49:28;3.33;;;2.92;;
36585;SDS011;22591;48.314;11.562;2023-12-28T02:51:54;3.10;;;2.90;;
36585;SDS011;22591;48.314;11.562;2023-12-28T02:54:20;2.97;;;2.78;;
36585;SDS011;22591;48.314;11.562;2023-12-28T02:56:45;2.92;;;2.72;;
36585;SDS011;22591;48.314;11.562;2023-12-28T02:59:11;3.00;;;2.80;;
36585;SDS011;22591;48.314;11.562;2023-12-28T03:01:36;3.33;;;3.05;;
36585;SDS011;22591;48.314;11.562;2023-12-28T03:04:02;2.72;;;2.53;;
36585;SDS011;22591;48.314;11.562;2023-12-28T03:06:28;2.90;;;2.70;;
36585;SDS011;22591;48.314;11.562;2023-12-28T03:08:53;2.92;;;2.72;;
36585;SDS011;22591;48.314;11.562;2023-12-28T03:11:19;3.25;;;2.88;;
36585;SDS011;22591;48.314;11.562;2023-12-28T03:13:45;3.03;;;2.70;;
36585;SDS011;22591;48.314;11.562;2023-12-28T03:16:12;5.93;;;5.18;;
36585;SDS011;22591;48.314;11.562;2023-12-28T03:18:38;2.55;;;2.35;;
36585;SDS011;22591;48.314;11.562;2023-12-28T03:21:04;2.45;;;2.35;;
36585;SDS011;22591;48.314;11.562;2023-12-28T03:23:30;3.15;;;2.83;;
36585;SDS011;22591;48.314;11.562;2023-12-28T03:25:56;2.80;;;2.60;;
36585;SDS011;22591;48.314;11.562;2023-12-28T03:28:21;2.50;;;2.40;;
36585;SDS011;22591;48.314;11.562;2023-12-28T03:30:47;2.72;;;2.53;;
36585;SDS011;22591;48.314;11.562;2023-12-28T03:33:12;2.90;;;2.20;;
36585;SDS011;22591;48.314;11.562;2023-12-28T03:35:38;2.33;;;2.15;;
36585;SDS011;22591;48.314;11.562;2023-12-28T03:38:03;3.58;;;2.10;;
36585;SDS011;22591;48.314;11.562;2023-12-28T03:40:29;2.08;;;1.98;;
36585;SDS011;22591;48.314;11.562;2023-12-28T03:42:55;2.15;;;2.05;;
36585;SDS011;22591;48.314;11.562;2023-12-28T03:45:20;2.20;;;2.10;;
36585;SDS011;22591;48.314;11.562;2023-12-28T03:47:46;2.58;;;2.38;;
36585;SDS011;22591;48.314;11.562;2023-12-28T03:50:11;2.95;;;2.58;;
36585;SDS011;22591;48.314;11.562;2023-12-28T03:52:37;2.78;;;2.58;;
36585;SDS011;22591;48.314;11.562;2023-12-28T03:55:03;2.80;;;2.60;;
36585;SDS011;22591;48.314;11.562;2023-12-28T03:57:28;5.50;;;3.38;;
36585;SDS011;22591;48.314;11.562;2023-12-28T03:59:54;2.92;;;2.70;;
36585;SDS011;22591;48.314;11.562;2023-12-28T04:02:20;3.08;;;2.88;;
36585;SDS011;22591;48.314;11.562;2023-12-28T04:04:45;2.92;;;2.67;;
36585;SDS011;22591;48.314;11.562;2023-12-28T04:07:11;2.85;;;2.65;;
36585;SDS011;22591;48.314;11.562;2023-12-28T04:09:36;2.10;;;2.00;;
36585;SDS011;22591;48.314;11.562;2023-12-28T04:12:03;2.50;;;2.40;;
36585;SDS011;22591;48.314;11.562;2023-12-28T04:14:28;2.70;;;2.40;;
36585;SDS011;22591;48.314;11.562;2023-12-28T04:16:54;2.20;;;2.10;;
36585;SDS011;22591;48.314;11.562;2023-12-28T04:19:19;2.35;;;2.25;;
36585;SDS011;22591;48.314;11.562;2023-12-28T04:21:45;2.90;;;2.70;;
36585;SDS011;22591;48.314;11.562;2023-12-28T04:24:10;2.75;;;2.55;;
36585;SDS011;22591;48.314;11.562;2023-12-28T04:26:36;2.10;;;2.00;;
36585;SDS011;22591;48.314;11.562;2023-12-28T04:29:02;2.10;;;2.00;;
36585;SDS011;22591;48.314;11.562;2023-12-28T04:31:27;2.15;;;2.05;;
36585;SDS011;22591;48.314;11.562;2023-12-28T04:33:53;2.65;;;2.45;;
36585;SDS011;22591;48.314;11.562;2023-12-28T04:36:18;2.30;;;2.10;;
36585;SDS011;22591;48.314;11.562;2023-12-28T04:38:44;2.63;;;2.42;;
36585;SDS011;22591;48.314;11.562;2023-12-28T04:41:09;2.17;;;2.03;;
36585;SDS011;22591;48.314;11.562;2023-12-28T04:43:36;2.15;;;2.00;;
36585;SDS011;22591;48.314;11.562;2023-12-28T04:46:02;2.00;;;1.90;;
36585;SDS011;22591;48.314;11.562;2023-12-28T04:48:29;2.40;;;2.20;;
36585;SDS011;22591;48.314;11.562;2023-12-28T04:50:54;3.15;;;2.05;;
36585;SDS011;22591;48.314;11.562;2023-12-28T04:53:20;2.90;;;1.88;;
36585;SDS011;22591;48.314;11.562;2023-12-28T04:55:46;1.95;;;1.85;;
36585;SDS011;22591;48.314;11.562;2023-12-28T04:58:11;1.95;;;1.85;;
36585;SDS011;22591;48.314;11.562;2023-12-28T05:00:37;1.67;;;1.58;;
36585;SDS011;22591;48.314;11.562;2023-12-28T05:03:03;2.15;;;2.05;;
36585;SDS011;22591;48.314;11.562;2023-12-28T05:05:28;1.70;;;1.60;;
36585;SDS011;22591;48.314;11.562;2023-12-28T05:07:54;1.52;;;1.50;;
36585;SDS011;22591;48.314;11.562;2023-12-28T05:10:19;3.53;;;1.73;;
36585;SDS011;22591;48.314;11.562;2023-12-28T05:12:45;2.08;;;1.90;;
36585;SDS011;22591;48.314;11.562;2023-12-28T05:15:10;1.85;;;1.70;;
36585;SDS011;22591;48.314;11.562;2023-12-28T05:17:36;2.05;;;1.95;;
36585;SDS011;22591;48.314;11.562;2023-12-28T05:20:02;2.00;;;1.90;;
36585;SDS011;22591;48.314;11.562;2023-12-28T05:22:27;2.20;;;1.58;;
36585;SDS011;22591;48.314;11.562;2023-12-28T05:24:53;1.65;;;1.55;;
36585;SDS011;22591;48.314;11.562;2023-12-28T05:27:18;1.95;;;1.85;;
36585;SDS011;22591;48.314;11.562;2023-12-28T05:29:44;1.80;;;1.70;;
36585;SDS011;22591;48.314;11.562;2023-12-28T05:32:10;4.38;;;1.80;;
36585;SDS011;22591;48.314;11.562;2023-12-28T05:34:35;1.95;;;1.85;;
36585;SDS011;22591;48.314;11.562;2023-12-28T05:37:01;2.10;;;1.90;;
36585;SDS011;22591;48.314;11.562;2023-12-28T05:39:26;2.03;;;1.92;;
36585;SDS011;22591;48.314;11.562;2023-12-28T05:41:52;2.42;;;1.85;;
36585;SDS011;22591;48.314;11.562;2023-12-28T05:44:17;2.30;;;2.15;;
36585;SDS011;22591;48.314;11.562;2023-12-28T05:46:43;2.15;;;2.05;;
36585;SDS011;22591;48.314;11.562;2023-12-28T05:49:09;2.53;;;2.33;;
36585;SDS011;22591;48.314;11.562;2023-12-28T05:51:38;2.00;;;1.90;;
36585;SDS011;22591;48.314;11.562;2023-12-28T05:54:07;2.30;;;2.10;;
36585;SDS011;22591;48.314;11.562;2023-12-28T05:56:33;2.10;;;1.90;;
36585;SDS011;22591;48.314;11.562;2023-12-28T05:58:58;2.25;;;2.15;;
36585;SDS011;22591;48.314;11.562;2023-12-28T06:01:24;1.55;;;1.40;;
36585;SDS011;22591;48.314;11.562;2023-12-28T06:03:50;1.55;;;1.50;;
36585;SDS011;22591;48.314;11.562;2023-12-28T06:06:17;1.83;;;1.73;;
36585;SDS011;22591;48.314;11.562;2023-12-28T06:08:43;2.45;;;1.63;;
36585;SDS011;22591;48.314;11.562;2023-12-28T06:11:09;1.63;;;1.52;;
36585;SDS011;22591;48.314;11.562;2023-12-28T06:13:34;1.55;;;1.35;;
36585;SDS011;22591;48.314;11.562;2023-12-28T06:16:00;1.90;;;1.33;;
36585;SDS011;22591;48.314;11.562;2023-12-28T06:18:26;1.75;;;1.65;;
36585;SDS011;22591;48.314;11.562;2023-12-28T06:20:51;2.30;;;1.55;;
36585;SDS011;22591;48.314;11.562;2023-12-28T06:23:17;1.90;;;1.80;;
36585;SDS011;22591;48.314;11.562;2023-12-28T06:25:42;3.42;;;1.73;;
36585;SDS011;22591;48.314;11.562;2023-12-28T06:28:08;1.92;;;1.73;;
36585;SDS011;22591;48.314;11.562;2023-12-28T06:30:34;2.00;;;1.85;;
36585;SDS011;22591;48.314;11.562;2023-12-28T06:32:59;1.77;;;1.67;;
36585;SDS011;22591;48.314;11.562;2023-12-28T06:35:25;1.58;;;1.48;;
36585;SDS011;22591;48.314;11.562;2023-12-28T06:37:50;1.52;;;1.50;;
36585;SDS011;22591;48.314;11.562;2023-12-28T06:40:16;5.40;;;1.67;;
36585;SDS011;22591;48.314;11.562;2023-12-28T06:42:41;3.08;;;2.85;;
36585;SDS011;22591;48.314;11.562;2023-12-28T06:45:08;3.33;;;3.03;;
36585;SDS011;22591;48.314;11.562;2023-12-28T06:47:35;3.17;;;2.00;;
36585;SDS011;22591;48.314;11.562;2023-12-28T06:50:00;1.83;;;1.73;;
36585;SDS011;22591;48.314;11.562;2023-12-28T06:52:26;1.73;;;1.20;;
36585;SDS011;22591;48.314;11.562;2023-12-28T06:54:51;1.98;;;1.88;;
36585;SDS011;22591;48.314;11.562;2023-12-28T06:57:18;1.45;;;1.40;;
36585;SDS011;22591;48.314;11.562;2023-12-28T06:59:43;1.55;;;1.45;;
36585;SDS011;22591;48.314;11.562;2023-12-28T07:02:09;1.30;;;1.30;;
36585;SDS011;22591;48.314;11.562;2023-12-28T07:04:35;1.52;;;1.42;;
36585;SDS011;22591;48.314;11.562;2023-12-28T07:07:01;1.58;;;1.48;;
36585;SDS011;22591;48.314;11.562;2023-12-28T07:09:27;2.88;;;1.55;;
36585;SDS011;22591;48.314;11.562;2023-12-28T07:11:52;1.88;;;1.77;;
36585;SDS011;22591;48.314;11.562;2023-12-28T07:14:18;1.60;;;1.50;;
36585;SDS011;22591;48.314;11.562;2023-12-28T07:16:43;1.50;;;1.40;;
36585;SDS011;22591;48.314;11.562;2023-12-28T07:19:10;2.13;;;1.30;;
36585;SDS011;22591;48.314;11.562;2023-12-28T07:21:35;1.73;;;1.63;;
36585;SDS011;22591;48.314;11.562;2023-12-28T07:24:01;1.95;;;1.85;;
36585;SDS011;22591;48.314;11.562;2023-12-28T07:26:26;1.67;;;1.60;;
36585;SDS011;22591;48.314;11.562;2023-12-28T07:28:52;1.90;;;1.80;;
36585;SDS011;22591;48.314;11.562;2023-12-28T07:31:26;1.60;;;1.50;;
36585;SDS011;22591;48.314;11.562;2023-12-28T07:33:52;1.65;;;1.50;;
36585;SDS011;22591;48.314;11.562;2023-12-28T07:36:18;2.72;;;1.60;;
36585;SDS011;22591;48.314;11.562;2023-12-28T07:38:44;1.50;;;1.40;;
36585;SDS011;22591;48.314;11.562;2023-12-28T07:41:10;2.00;;;1.50;;
36585;SDS011;22591;48.314;11.562;2023-12-28T07:43:36;1.45;;;1.30;;
36585;SDS011;22591;48.314;11.562;2023-12-28T07:46:02;1.48;;;1.48;;
36585;SDS011;22591;48.314;11.562;2023-12-28T07:48:27;2.40;;;1.77;;
36585;SDS011;22591;48.314;11.562;2023-12-28T07:50:55;1.70;;;1.60;;
36585;SDS011;22591;48.314;11.562;2023-12-28T07:53:24;1.80;;;1.70;;
36585;SDS011;22591;48.314;11.562;2023-12-28T07:55:49;4.20;;;1.70;;
36585;SDS011;22591;48.314;11.562;2023-12-28T07:58:15;3.17;;;1.80;;
36585;SDS011;22591;48.314;11.562;2023-12-28T08:00:41;2.97;;;1.80;;
36585;SDS011;22591;48.314;11.562;2023-12-28T08:03:06;1.70;;;1.60;;
36585;SDS011;22591;48.314;11.562;2023-12-28T08:05:32;1.67;;;1.50;;
36585;SDS011;22591;48.314;11.562;2023-12-28T08:07:57;1.85;;;1.75;;
36585;SDS011;22591;48.314;11.562;2023-12-28T08:10:23;2.08;;;1.80;;
36585;SDS011;22591;48.314;11.562;2023-12-28T08:12:48;2.35;;;1.67;;
36585;SDS011;22591;48.314;11.562;2023-12-28T08:15:14;2.45;;;1.75;;
36585;SDS011;22591;48.314;11.562;2023-12-28T08:17:39;1.52;;;1.42;;
36585;SDS011;22591;48.314;11.562;2023-12-28T08:20:05;1.70;;;1.60;;
36585;SDS011;22591;48.314;11.562;2023-12-28T08:22:31;1.60;;;1.50;;
36585;SDS011;22591;48.314;11.562;2023-12-28T08:24:57;1.90;;;1.80;;
36585;SDS011;22591;48.314;11.562;2023-12-28T08:27:23;1.95;;;1.30;;
36585;SDS011;22591;48.314;11.562;2023-12-28T08:29:48;1.58;;;1.48;;
36585;SDS011;22591;48.314;11.562;2023-12-28T08:32:14;1.90;;;1.80;;
36585;SDS011;22591;48.314;11.562;2023-12-28T08:34:40;1.90;;;1.60;;
36585;SDS011;22591;48.314;11.562;2023-12-28T08:37:06;2.13;;;1.55;;
36585;SDS011;22591;48.314;11.562;2023-12-28T08:39:31;1.40;;;1.40;;
36585;SDS011;22591;48.314;11.562;2023-12-28T08:41:57;1.70;;;1.60;;
36585;SDS011;22591;48.314;11.562;2023-12-28T08:44:22;1.80;;;1.67;;
36585;SDS011;22591;48.314;11.562;2023-12-28T08:46:48;1.70;;;1.60;;
36585;SDS011;22591;48.314;11.562;2023-12-28T08:49:14;1.77;;;1.67;;
36585;SDS011;22591;48.314;11.562;2023-12-28T08:51:40;1.90;;;1.80;;
36585;SDS011;22591;48.314;11.562;2023-12-28T08:54:06;1.65;;;1.35;;
36585;SDS011;22591;48.314;11.562;2023-12-28T08:56:33;2.70;;;1.75;;
36585;SDS011;22591;48.314;11.562;2023-12-28T08:58:58;1.60;;;1.50;;
36585;SDS011;22591;48.314;11.562;2023-12-28T09:01:24;1.63;;;1.52;;
36585;SDS011;22591;48.314;11.562;2023-12-28T09:03:54;1.90;;;1.80;;
36585;SDS011;22591;48.314;11.562;2023-12-28T09:06:20;1.60;;;1.50;;
36585;SDS011;22591;48.314;11.562;2023-12-28T09:08:50;4.10;;;1.60;;
36585;SDS011;22591;48.314;11.562;2023-12-28T09:11:17;1.83;;;1.73;;
36585;SDS011;22591;48.314;11.562;2023-12-28T09:13:43;1.45;;;1.35;;
36585;SDS011;22591;48.314;11.562;2023-12-28T09:16:12;1.75;;;1.65;;
36585;SDS011;22591;48.314;11.562;2023-12-28T09:18:38;1.70;;;1.60;;
36585;SDS011;22591;48.314;11.562;2023-12-28T09:21:05;1.63;;;1.52;;
36585;SDS011;22591;48.314;11.562;2023-12-28T09:23:32;1.70;;;1.60;;
36585;SDS011;22591;48.314;11.562;2023-12-28T09:25:59;1.55;;;1.48;;
36585;SDS011;22591;48.314;11.562;2023-12-28T09:28:25;1.83;;;1.73;;
36585;SDS011;22591;48.314;11.562;2023-12-28T09:30:51;2.33;;;1.85;;
36585;SDS011;22591;48.314;11.562;2023-12-28T09:33:16;1.55;;;1.50;;
36585;SDS011;22591;48.314;11.562;2023-12-28T09:35:42;2.88;;;1.95;;
36585;SDS011;22591;48.314;11.562;2023-12-28T09:38:08;3.65;;;2.55;;
36585;SDS011;22591;48.314;11.562;2023-12-28T09:40:34;3.45;;;3.17;;
36585;SDS011;22591;48.314;11.562;2023-12-28T09:43:13;3.35;;;3.05;;
36585;SDS011;22591;48.314;11.562;2023-12-28T09:45:51;3.05;;;2.42;;
36585;SDS011;22591;48.314;11.562;2023-12-28T09:48:19;2.20;;;2.03;;
36585;SDS011;22591;48.314;11.562;2023-12-28T09:50:48;1.67;;;1.60;;
36585;SDS011;22591;48.314;11.562;2023-12-28T09:53:20;1.85;;;1.75;;
36585;SDS011;22591;48.314;11.562;2023-12-28T09:55:49;2.30;;;2.20;;
36585;SDS011;22591;48.314;11.562;2023-12-28T09:58:16;2.25;;;1.65;;
36585;SDS011;22591;48.314;11.562;2023-12-28T10:00:44;1.58;;;1.48;;
36585;SDS011;22591;48.314;11.562;2023-12-28T10:03:11;1.50;;;1.40;;
36585;SDS011;22591;48.314;11.562;2023-12-28T10:05:40;2.15;;;1.92;;
36585;SDS011;22591;48.314;11.562;2023-12-28T10:08:07;2.10;;;1.90;;
36585;SDS011;22591;48.314;11.562;2023-12-28T10:10:32;2.30;;;2.10;;
36585;SDS011;22591;48.314;11.562;2023-12-28T10:12:58;2.67;;;2.47;;
36585;SDS011;22591;48.314;11.562;2023-12-28T10:15:24;3.67;;;1.60;;
36585;SDS011;22591;48.314;11.562;2023-12-28T10:17:51;1.88;;;1.77;;
36585;SDS011;22591;48.314;11.562;2023-12-28T10:20:17;2.08;;;1.98;;
36585;SDS011;22591;48.314;11.562;2023-12-28T10:22:43;1.75;;;1.65;;
36585;SDS011;22591;48.314;11.562;2023-12-28T10:25:09;1.58;;;1.48;;
36585;SDS011;22591;48.314;11.562;2023-12-28T10:27:37;1.90;;;1.50;;
36585;SDS011;22591;48.314;11.562;2023-12-28T10:30:04;1.70;;;1.60;;
36585;SDS011;22591;48.314;11.562;2023-12-28T10:32:30;1.50;;;1.40;;
36585;SDS011;22591;48.314;11.562;2023-12-28T10:34:56;1.98;;;1.80;;
36585;SDS011;22591;48.314;11.562;2023-12-28T10:37:22;1.88;;;1.77;;
36585;SDS011;22591;48.314;11.562;2023-12-28T10:39:53;2.08;;;1.60;;
36585;SDS011;22591;48.314;11.562;2023-12-28T10:42:40;1.63;;;1.50;;
36585;SDS011;22591;48.314;11.562;2023-12-28T10:45:18;1.48;;;1.38;;
36585;SDS011;22591;48.314;11.562;2023-12-28T10:48:22;1.65;;;1.55;;
36585;SDS011;22591;48.314;11.562;2023-12-28T10:50:43;1.67;;;1.58;;
36585;SDS011;22591;48.314;11.562;2023-12-28T10:53:25;1.50;;;1.40;;
36585;SDS011;22591;48.314;11.562;2023-12-28T10:56:27;1.42;;;1.40;;
36585;SDS011;22591;48.314;11.562;2023-12-28T10:59:09;2.20;;;2.03;;
36585;SDS011;22591;48.314;11.562;2023-12-28T11:01:53;1.80;;;1.70;;
36585;SDS011;22591;48.314;11.562;2023-12-28T11:07:18;1.65;;;1.55;;
36585;SDS011;22591;48.314;11.562;2023-12-28T11:09:45;1.65;;;1.55;;
36585;SDS011;22591;48.314;11.562;2023-12-28T11:12:11;1.70;;;1.60;;
36585;SDS011;22591;48.314;11.562;2023-12-28T11:14:39;1.65;;;1.55;;
36585;SDS011;22591;48.314;11.562;2023-12-28T11:17:05;1.95;;;1.60;;
36585;SDS011;22591;48.314;11.562;2023-12-28T11:19:32;1.73;;;1.63;;
36585;SDS011;22591;48.314;11.562;2023-12-28T11:22:00;1.60;;;1.50;;
36585;SDS011;22591;48.314;11.562;2023-12-28T11:24:27;1.65;;;1.55;;
36585;SDS011;22591;48.314;11.562;2023-12-28T11:26:55;1.70;;;1.60;;
36585;SDS011;22591;48.314;11.562;2023-12-28T11:29:21;1.73;;;1.63;;
36585;SDS011;22591;48.314;11.562;2023-12-28T11:31:52;2.13;;;1.80;;
36585;SDS011;22591;48.314;11.562;2023-12-28T11:34:18;1.58;;;1.48;;
36585;SDS011;22591;48.314;11.562;2023-12-28T11:36:45;1.50;;;1.40;;
36585;SDS011;22591;48.314;11.562;2023-12-28T11:39:14;1.50;;;1.40;;
36585;SDS011;22591;48.314;11.562;2023-12-28T11:41:59;2.25;;;1.55;;
36585;SDS011;22591;48.314;11.562;2023-12-28T11:44:27;1.52;;;1.48;;
36585;SDS011;22591;48.314;11.562;2023-12-28T11:46:53;1.70;;;1.27;;
36585;SDS011;22591;48.314;11.562;2023-12-28T11:49:24;1.70;;;1.60;;
36585;SDS011;22591;48.314;11.562;2023-12-28T11:51:56;1.73;;;1.58;;
36585;SDS011;22591;48.314;11.562;2023-12-28T11:54:23;1.55;;;1.45;;
36585;SDS011;22591;48.314;11.562;2023-12-28T11:56:50;1.48;;;1.40;;
36585;SDS011;22591;48.314;11.562;2023-12-28T11:59:16;1.50;;;1.40;;
36585;SDS011;22591;48.314;11.562;2023-12-28T12:01:43;1.73;;;1.63;;
36585;SDS011;22591;48.314;11.562;2023-12-28T12:04:08;1.95;;;1.73;;
36585;SDS011;22591;48.314;11.562;2023-12-28T12:06:35;1.48;;;1.33;;
36585;SDS011;22591;48.314;11.562;2023-12-28T12:09:01;3.30;;;1.77;;
36585;SDS011;22591;48.314;11.562;2023-12-28T12:11:26;1.65;;;1.55;;
36585;SDS011;22591;48.314;11.562;2023-12-28T12:13:54;3.10;;;1.45;;
36585;SDS011;22591;48.314;11.562;2023-12-28T12:16:20;1.55;;;1.45;;
36585;SDS011;22591;48.314;11.562;2023-12-28T12:18:47;1.40;;;1.30;;
36585;SDS011;22591;48.314;11.562;2023-12-28T12:21:13;1.65;;;1.55;;
36585;SDS011;22591;48.314;11.562;2023-12-28T12:23:40;1.60;;;1.50;;
36585;SDS011;22591;48.314;11.562;2023-12-28T12:26:06;1.40;;;1.30;;
36585;SDS011;22591;48.314;11.562;2023-12-28T12:28:32;3.53;;;1.42;;
36585;SDS011;22591;48.314;11.562;2023-12-28T12:31:17;1.42;;;1.33;;
36585;SDS011;22591;48.314;11.562;2023-12-28T12:33:43;1.98;;;1.33;;
36585;SDS011;22591;48.314;11.562;2023-12-28T12:36:09;1.33;;;1.30;;
36585;SDS011;22591;48.314;11.562;2023-12-28T12:38:36;18.23;;;2.50;;
36585;SDS011;22591;48.314;11.562;2023-12-28T12:41:01;1.77;;;1.67;;
36585;SDS011;22591;48.314;11.562;2023-12-28T12:43:27;1.95;;;1.85;;
36585;SDS011;22591;48.314;11.562;2023-12-28T12:45:53;1.60;;;1.50;;
36585;SDS011;22591;48.314;11.562;2023-12-28T12:48:19;2.33;;;2.13;;
36585;SDS011;22591;48.314;11.562;2023-12-28T12:50:45;2.38;;;2.22;;
36585;SDS011;22591;48.314;11.562;2023-12-28T12:53:10;1.80;;;1.70;;
36585;SDS011;22591;48.314;11.562;2023-12-28T12:55:37;2.13;;;1.77;;
36585;SDS011;22591;48.314;11.562;2023-12-28T12:58:04;2.00;;;1.80;;
36585;SDS011;22591;48.314;11.562;2023-12-28T13:00:34;1.85;;;1.75;;
36585;SDS011;22591;48.314;11.562;2023-12-28T13:03:00;3.22;;;2.22;;
36585;SDS011;22591;48.314;11.562;2023-12-28T13:05:26;2.58;;;2.47;;
36585;SDS011;22591;48.314;11.562;2023-12-28T13:07:52;4.30;;;1.63;;
36585;SDS011;22591;48.314;11.562;2023-12-28T13:10:19;1.70;;;1.60;;
36585;SDS011;22591;48.314;11.562;2023-12-28T13:12:44;2.20;;;2.05;;
36585;SDS011;22591;48.314;11.562;2023-12-28T13:15:10;1.70;;;1.60;;
36585;SDS011;22591;48.314;11.562;2023-12-28T13:17:36;1.95;;;1.85;;
36585;SDS011;22591;48.314;11.562;2023-12-28T13:20:02;3.22;;;1.90;;
36585;SDS011;22591;48.314;11.562;2023-12-28T13:22:30;1.90;;;1.60;;
36585;SDS011;22591;48.314;11.562;2023-12-28T13:24:56;2.17;;;1.98;;
36585;SDS011;22591;48.314;11.562;2023-12-28T13:27:22;5.05;;;2.10;;
36585;SDS011;22591;48.314;11.562;2023-12-28T13:29:49;1.88;;;1.70;;
36585;SDS011;22591;48.314;11.562;2023-12-28T13:32:14;1.92;;;1.83;;
36585;SDS011;22591;48.314;11.562;2023-12-28T13:34:40;2.13;;;1.85;;
36585;SDS011;22591;48.314;11.562;2023-12-28T13:37:05;1.90;;;1.60;;
36585;SDS011;22591;48.314;11.562;2023-12-28T13:39:31;1.70;;;1.50;;
36585;SDS011;22591;48.314;11.562;2023-12-28T13:41:57;1.60;;;1.52;;
36585;SDS011;22591;48.314;11.562;2023-12-28T13:44:23;2.22;;;2.13;;
36585;SDS011;22591;48.314;11.562;2023-12-28T13:46:49;1.80;;;1.70;;
36585;SDS011;22591;48.314;11.562;2023-12-28T13:49:14;3.83;;;2.00;;
36585;SDS011;22591;48.314;11.562;2023-12-28T13:51:40;1.60;;;1.50;;
36585;SDS011;22591;48.314;11.562;2023-12-28T13:54:05;2.28;;;2.10;;
36585;SDS011;22591;48.314;11.562;2023-12-28T13:56:31;1.70;;;1.60;;
36585;SDS011;22591;48.314;11.562;2023-12-28T13:58:57;3.55;;;2.08;;
36585;SDS011;22591;48.314;11.562;2023-12-28T14:01:22;1.63;;;1.52;;
36585;SDS011;22591;48.314;11.562;2023-12-28T14:03:48;1.70;;;1.60;;
36585;SDS011;22591;48.314;11.562;2023-12-28T14:06:16;2.08;;;1.98;;
36585;SDS011;22591;48.314;11.562;2023-12-28T14:08:42;3.92;;;1.92;;
36585;SDS011;22591;48.314;11.562;2023-12-28T14:11:07;2.05;;;1.70;;
36585;SDS011;22591;48.314;11.562;2023-12-28T14:13:34;1.38;;;1.30;;
36585;SDS011;22591;48.314;11.562;2023-12-28T14:16:00;1.65;;;1.50;;
36585;SDS011;22591;48.314;11.562;2023-12-28T14:18:26;1.60;;;1.50;;
36585;SDS011;22591;48.314;11.562;2023-12-28T14:20:51;1.63;;;1.52;;
36585;SDS011;22591;48.314;11.562;2023-12-28T14:23:17;2.17;;;2.00;;
36585;SDS011;22591;48.314;11.562;2023-12-28T14:25:44;2.00;;;1.85;;
36585;SDS011;22591;48.314;11.562;2023-12-28T14:28:16;1.75;;;1.65;;
36585;SDS011;22591;48.314;11.562;2023-12-28T14:30:42;2.70;;;2.10;;
36585;SDS011;22591;48.314;11.562;2023-12-28T14:33:08;1.88;;;1.77;;
36585;SDS011;22591;48.314;11.562;2023-12-28T14:35:34;3.80;;;3.15;;
36585;SDS011;22591;48.314;11.562;2023-12-28T14:38:00;7.88;;;5.90;;